Diamond Bluff, Wisconsin
Current Conditions -  °F | °C
As of 7:10 AM on Friday 28 Nov 2014 (Local Time) from KRGK Reporting Station
Overcast Overcast  
Wind Chill:   Ceiling: 9000
Heat Index: 16°   Visibility: 10mi
Dew Point:   Wind: 7mph
Humidity: 73%   Direction: 130°SE
Pressure: 30.04"   Gusts: NA
Location:  44.6468°N, 92.567°W
Report Text: KRGK 281310Z AUTO 13006KT 10SM OVC090 M09/M13 A3004 RMK AO2
Loading
Personal Weather Stations






























Interactive Weather Map New forecast layout! Learn more

10-Day Weather Forecast

Advertisements
Track Severe Weather on mobile